createdAt,value
2023-01-18T00:02:36.259Z,91.48
2023-01-18T00:06:34.307Z,91.41
2023-01-18T00:10:32.404Z,91.46
2023-01-18T00:14:31.252Z,91.42
2023-01-18T00:18:29.271Z,91.42
2023-01-18T00:22:27.358Z,91.39
2023-01-18T00:26:26.185Z,91.33
2023-01-18T00:30:25.227Z,91.33
2023-01-18T00:34:23.156Z,91.34
2023-01-18T00:38:21.204Z,91.36
2023-01-18T00:42:36.182Z,91.28
2023-01-18T00:46:43.189Z,91.22
2023-01-18T00:50:41.125Z,91.20
2023-01-18T00:54:39.435Z,91.20
2023-01-18T00:58:38.235Z,91.12
2023-01-18T01:02:37.298Z,91.02
2023-01-18T01:06:52.119Z,90.99
2023-01-18T01:10:50.198Z,90.88
2023-01-18T01:15:08.661Z,90.77
2023-01-18T01:19:23.120Z,90.54
2023-01-18T01:23:55.095Z,90.51
2023-01-18T01:27:53.173Z,90.49
2023-01-18T01:31:51.155Z,90.46
2023-01-18T01:35:49.135Z,90.29
2023-01-18T01:39:47.060Z,90.26
2023-01-18T01:44:05.101Z,90.35
2023-01-18T01:48:03.143Z,90.47
2023-01-18T01:52:07.115Z,90.54
2023-01-18T01:56:05.097Z,90.63
2023-01-18T02:00:13.156Z,90.74
2023-01-18T02:04:15.039Z,90.91
2023-01-18T02:08:18.104Z,91.03
2023-01-18T02:12:16.100Z,91.15
2023-01-18T02:16:32.123Z,91.31
2023-01-18T02:20:58.064Z,91.39
2023-01-18T02:24:58.987Z,91.32
2023-01-18T02:29:07.025Z,91.46
2023-01-18T02:33:16.137Z,91.44
2023-01-18T02:37:45.966Z,91.64
2023-01-18T02:42:19.026Z,92.10
2023-01-18T02:46:40.008Z,92.13
2023-01-18T02:50:42.073Z,92.22
2023-01-18T02:54:39.967Z,92.45
2023-01-18T02:58:54.093Z,92.63
2023-01-18T03:02:55.403Z,92.76
2023-01-18T03:06:57.982Z,92.84
2023-01-18T03:11:13.977Z,92.89
2023-01-18T03:15:26.041Z,92.90
2023-01-18T03:19:54.025Z,92.90
2023-01-18T03:23:56.952Z,92.89
2023-01-18T03:28:14.970Z,92.96
2023-01-18T03:32:44.963Z,92.94
2023-01-18T03:36:52.492Z,92.86
2023-01-18T03:40:52.014Z,92.77
2023-01-18T03:44:59.119Z,92.65
2023-01-18T03:48:56.983Z,92.60
2023-01-18T03:53:04.895Z,92.51
2023-01-18T03:57:10.944Z,92.35
2023-01-18T04:01:10.996Z,92.30
2023-01-18T04:05:09.889Z,92.29
2023-01-18T04:09:07.860Z,92.30
2023-01-18T04:13:06.975Z,92.34
2023-01-18T04:17:04.953Z,92.36
2023-01-18T04:21:02.933Z,92.43
2023-01-18T04:25:01.920Z,92.44
2023-01-18T04:28:59.916Z,92.40
2023-01-18T04:32:58.463Z,92.45
2023-01-18T04:36:56.901Z,92.56
2023-01-18T04:40:54.875Z,92.67
2023-01-18T04:44:52.831Z,92.78
2023-01-18T04:48:50.937Z,92.87
2023-01-18T04:52:48.911Z,92.97
2023-01-18T04:56:47.913Z,93.00
2023-01-18T05:00:46.939Z,92.98
2023-01-18T05:04:45.923Z,92.99
2023-01-18T05:08:47.895Z,92.97
2023-01-18T05:12:38.911Z,92.97
2023-01-18T05:16:37.914Z,92.99
2023-01-18T05:20:35.794Z,93.04
2023-01-18T05:24:33.886Z,93.06
2023-01-18T05:28:31.813Z,93.07
2023-01-18T05:32:29.780Z,93.04
2023-01-18T05:36:29.858Z,93.01
2023-01-18T05:40:27.752Z,93.04
2023-01-18T05:44:25.743Z,93.08
2023-01-18T05:48:24.767Z,93.16
2023-01-18T05:52:23.818Z,93.23
2023-01-18T05:56:22.756Z,93.35
2023-01-18T06:00:21.717Z,93.44
2023-01-18T06:04:19.857Z,93.52
2023-01-18T06:08:17.778Z,93.58
2023-01-18T06:12:15.757Z,93.64
2023-01-18T06:16:14.802Z,93.72
2023-01-18T06:20:12.777Z,93.79
2023-01-18T06:24:10.651Z,93.85
2023-01-18T06:28:09.830Z,94.00
2023-01-18T06:32:07.666Z,94.11
2023-01-18T06:36:05.788Z,94.31
2023-01-18T06:40:03.765Z,94.11
2023-01-18T06:44:01.676Z,93.86
2023-01-18T06:47:52.855Z,93.72
2023-01-18T06:51:50.739Z,93.75
2023-01-18T06:55:48.710Z,93.77
2023-01-18T06:59:39.786Z,93.97
2023-01-18T07:03:04.464Z,94.14
2023-01-18T07:06:28.512Z,94.10
2023-01-18T07:09:52.525Z,93.97
2023-01-18T07:13:17.086Z,93.89
2023-01-18T07:16:40.919Z,93.77
2023-01-18T07:20:05.350Z,93.69
2023-01-18T07:23:30.079Z,93.68
2023-01-18T07:26:53.911Z,93.60
2023-01-18T07:30:18.369Z,93.57
2023-01-18T07:33:42.217Z,93.56
2023-01-18T07:37:06.544Z,93.54
2023-01-18T07:40:30.359Z,93.51
2023-01-18T07:43:54.260Z,93.43
2023-01-18T07:47:18.352Z,93.32
2023-01-18T07:50:42.319Z,93.22
2023-01-18T07:54:06.588Z,93.15
2023-01-18T07:57:30.589Z,93.13
2023-01-18T08:00:54.789Z,93.09
2023-01-18T08:04:18.833Z,92.95
2023-01-18T08:07:43.316Z,92.82
2023-01-18T08:11:08.975Z,92.70
2023-01-18T08:14:33.411Z,92.62
2023-01-18T08:17:58.535Z,92.49
2023-01-18T08:21:22.380Z,92.43
2023-01-18T08:24:46.287Z,92.24
2023-01-18T08:28:10.903Z,92.09
2023-01-18T08:31:34.792Z,91.94
2023-01-18T08:34:58.702Z,91.66
2023-01-18T08:38:23.700Z,91.53
2023-01-18T08:41:49.122Z,91.49
2023-01-18T08:45:13.116Z,91.21
2023-01-18T08:48:37.282Z,90.98
2023-01-18T08:52:01.267Z,90.54
2023-01-18T08:55:25.206Z,90.30
2023-01-18T08:58:49.158Z,89.82
2023-01-18T09:02:13.285Z,89.71
2023-01-18T09:05:37.710Z,89.09
2023-01-18T09:09:02.384Z,88.61
2023-01-18T09:12:26.693Z,88.58
2023-01-18T09:16:00.127Z,88.49
2023-01-18T09:19:24.082Z,88.17
2023-01-18T09:22:48.900Z,88.01
2023-01-18T09:26:17.110Z,87.87
2023-01-18T09:29:41.807Z,87.66
2023-01-18T09:33:05.741Z,87.58
2023-01-18T09:36:30.888Z,87.68
2023-01-18T09:39:54.946Z,87.69
2023-01-18T09:43:30.295Z,87.62
2023-01-18T09:47:13.032Z,87.34
2023-01-18T09:50:43.966Z,87.39
2023-01-18T09:54:24.107Z,87.19
2023-01-18T09:58:33.347Z,87.04
2023-01-18T10:01:57.684Z,86.83
2023-01-18T10:05:25.544Z,86.80
2023-01-18T10:09:15.668Z,86.41
2023-01-18T10:12:48.052Z,86.03
2023-01-18T10:16:15.454Z,86.07
2023-01-18T10:19:42.269Z,86.08
2023-01-18T10:23:19.017Z,86.04
2023-01-18T10:26:42.835Z,85.78
2023-01-18T10:30:32.949Z,85.95
2023-01-18T10:34:00.167Z,86.00
2023-01-18T10:37:23.884Z,85.66
2023-01-18T10:40:57.740Z,85.00
2023-01-18T10:44:21.746Z,84.95
2023-01-18T10:47:45.936Z,85.07
2023-01-18T10:51:09.835Z,85.11
2023-01-18T10:54:33.736Z,85.23
2023-01-18T10:57:58.047Z,85.28
2023-01-18T11:01:26.032Z,85.21
2023-01-18T11:04:57.279Z,85.29
2023-01-18T11:08:24.124Z,85.38
2023-01-18T11:12:05.403Z,85.50
2023-01-18T11:15:31.721Z,85.59
2023-01-18T11:19:03.331Z,85.66
2023-01-18T11:22:32.921Z,85.77
2023-01-18T11:26:00.800Z,85.85
2023-01-18T11:29:28.745Z,86.00
2023-01-18T11:32:53.465Z,86.04
2023-01-18T11:36:19.342Z,86.11
2023-01-18T11:39:45.470Z,86.10
2023-01-18T11:43:22.581Z,86.08
2023-01-18T11:46:52.091Z,86.11
2023-01-18T11:50:25.043Z,86.09
2023-01-18T11:54:13.341Z,86.13
2023-01-18T11:57:37.258Z,86.22
2023-01-18T12:01:10.841Z,86.29
2023-01-18T12:04:40.343Z,86.33
2023-01-18T12:08:25.317Z,86.41
2023-01-18T12:12:18.433Z,86.27
2023-01-18T12:16:01.216Z,86.16
2023-01-18T12:20:22.997Z,86.17
2023-01-18T12:23:58.961Z,86.35
2023-01-18T12:27:41.628Z,86.50
2023-01-18T12:31:43.378Z,86.72
2023-01-18T12:35:26.319Z,86.84
2023-01-18T12:38:56.459Z,86.97
2023-01-18T12:43:00.516Z,86.76
2023-01-18T12:46:47.815Z,86.16
2023-01-18T12:50:30.097Z,85.76
2023-01-18T12:54:13.552Z,85.38
2023-01-18T12:57:37.883Z,85.24
2023-01-18T13:01:05.973Z,85.37
2023-01-18T13:04:44.737Z,85.16
2023-01-18T13:08:16.250Z,85.07
2023-01-18T13:11:44.326Z,84.54
2023-01-18T13:15:43.929Z,84.69
2023-01-18T13:19:12.557Z,85.05
2023-01-18T13:22:48.945Z,85.27
2023-01-18T13:26:18.543Z,85.11
2023-01-18T13:29:46.357Z,85.20
2023-01-18T13:33:14.909Z,85.01
2023-01-18T13:36:47.351Z,85.26
2023-01-18T13:40:28.560Z,85.46
2023-01-18T13:43:56.379Z,85.59
2023-01-18T13:47:39.686Z,85.51
2023-01-18T13:51:03.557Z,85.16
2023-01-18T13:54:28.614Z,85.14
2023-01-18T13:57:56.802Z,85.00
2023-01-18T14:01:25.214Z,84.46
2023-01-18T14:05:00.716Z,83.94
2023-01-18T14:08:32.610Z,83.44
2023-01-18T14:12:01.939Z,83.62
2023-01-18T14:15:44.740Z,83.68
2023-01-18T14:19:23.606Z,83.64
2023-01-18T14:23:21.703Z,83.61
2023-01-18T14:26:48.040Z,83.93
2023-01-18T14:30:38.242Z,84.17
2023-01-18T14:34:45.151Z,84.30
2023-01-18T14:38:47.049Z,84.56
2023-01-18T14:42:25.209Z,84.75
2023-01-18T14:46:16.125Z,84.87
2023-01-18T14:49:42.414Z,85.26
2023-01-18T14:53:08.955Z,84.86
2023-01-18T14:56:34.965Z,83.95
2023-01-18T15:00:30.543Z,83.57
2023-01-18T15:04:00.278Z,83.07
2023-01-18T15:07:33.997Z,82.35
2023-01-18T15:10:59.533Z,82.21
2023-01-18T15:14:33.545Z,82.66
2023-01-18T15:18:10.652Z,83.52
2023-01-18T15:21:37.684Z,84.75
2023-01-18T15:25:02.180Z,82.38
2023-01-18T15:28:34.029Z,81.51
2023-01-18T15:32:21.708Z,80.05
2023-01-18T15:35:49.375Z,77.80
2023-01-18T15:39:14.469Z,77.10
2023-01-18T15:42:49.603Z,78.14
2023-01-18T15:46:19.221Z,78.63
2023-01-18T15:49:48.909Z,77.93
2023-01-18T15:53:26.032Z,78.54
2023-01-18T15:56:50.138Z,78.97
2023-01-18T16:00:46.876Z,78.64
2023-01-18T16:04:11.981Z,78.94
2023-01-18T16:07:39.394Z,79.55
2023-01-18T16:11:06.037Z,79.80
2023-01-18T16:14:31.064Z,80.06
2023-01-18T16:18:04.384Z,80.54
2023-01-18T16:25:10.939Z,81.50
2023-01-18T16:28:36.976Z,81.90
2023-01-18T16:32:29.116Z,81.57
2023-01-18T16:35:53.164Z,81.54
2023-01-18T16:39:17.038Z,82.04
2023-01-18T16:42:55.681Z,82.15
2023-01-18T16:46:20.428Z,82.01
2023-01-18T16:49:44.583Z,82.18
2023-01-18T16:53:09.612Z,82.08
2023-01-18T16:56:35.430Z,82.23
2023-01-18T16:59:59.335Z,82.46
2023-01-18T17:03:23.385Z,82.36
2023-01-18T17:06:50.715Z,82.52
2023-01-18T17:10:20.062Z,82.51
2023-01-18T17:13:47.764Z,82.53
2023-01-18T17:17:12.027Z,82.51
2023-01-18T17:20:36.311Z,82.53
2023-01-18T17:24:01.925Z,82.49
2023-01-18T17:27:25.826Z,82.35
2023-01-18T17:30:56.036Z,82.32
2023-01-18T17:34:28.013Z,82.24
2023-01-18T17:38:00.980Z,82.14
2023-01-18T17:41:40.882Z,82.36
2023-01-18T17:45:06.638Z,82.40
2023-01-18T17:48:30.655Z,82.32
2023-01-18T17:51:54.634Z,82.45
2023-01-18T17:55:24.500Z,82.42
2023-01-18T17:58:54.995Z,82.45
2023-01-18T18:02:19.049Z,82.51
2023-01-18T18:05:43.770Z,82.56
2023-01-18T18:09:08.710Z,82.60
2023-01-18T18:12:35.869Z,82.49
2023-01-18T18:15:59.844Z,82.41
2023-01-18T18:19:26.522Z,82.33
2023-01-18T18:22:50.451Z,82.35
2023-01-18T18:26:18.726Z,82.25
2023-01-18T18:45:32.578Z,82.54
2023-01-18T18:48:56.729Z,82.11
2023-01-18T18:52:20.579Z,81.89
2023-01-18T18:55:44.670Z,82.00
2023-01-18T18:59:08.770Z,82.01
2023-01-18T19:02:32.802Z,81.84
2023-01-18T19:05:56.749Z,81.98
2023-01-18T19:09:20.991Z,81.87
2023-01-18T19:12:45.139Z,81.52
2023-01-18T19:16:09.467Z,81.64
2023-01-18T19:19:33.800Z,81.87
2023-01-18T19:22:58.373Z,81.88
2023-01-18T19:26:22.941Z,81.80
2023-01-18T19:29:47.105Z,81.76
2023-01-18T19:33:12.826Z,81.87
2023-01-18T19:36:36.748Z,81.98
2023-01-18T19:40:01.098Z,82.03
2023-01-18T19:43:25.692Z,82.03
2023-01-18T19:46:49.711Z,82.08
2023-01-18T19:50:13.649Z,82.12
2023-01-18T19:53:37.527Z,82.17
2023-01-18T19:57:02.747Z,82.25
2023-01-18T20:00:29.027Z,82.41
2023-01-18T20:03:53.260Z,82.43
2023-01-18T20:07:17.448Z,82.49
2023-01-18T20:10:42.358Z,82.46
2023-01-18T20:14:07.831Z,82.55
2023-01-18T20:17:31.689Z,82.57
2023-01-18T20:20:57.018Z,82.63
2023-01-18T20:24:21.065Z,82.68
2023-01-18T20:27:45.501Z,82.63
2023-01-18T20:31:10.347Z,82.70
2023-01-18T20:34:36.279Z,82.83
2023-01-18T20:38:00.146Z,82.83
2023-01-18T20:41:24.339Z,82.95
2023-01-18T20:44:53.854Z,83.10
2023-01-18T20:48:18.496Z,83.21
2023-01-18T20:51:44.116Z,83.25
2023-01-18T20:55:13.830Z,83.25
2023-01-18T20:58:38.870Z,83.20
2023-01-18T21:02:04.124Z,83.26
2023-01-18T21:05:31.066Z,83.39
2023-01-18T21:08:59.347Z,83.54
2023-01-18T21:12:23.522Z,83.76
2023-01-18T21:15:54.609Z,83.83
2023-01-18T21:19:18.488Z,83.85
2023-01-18T21:22:42.732Z,83.95
2023-01-18T21:26:11.637Z,84.04
2023-01-18T21:29:35.690Z,84.01
2023-01-18T21:32:59.452Z,83.97
2023-01-18T21:36:23.741Z,84.00
2023-01-18T21:39:47.623Z,84.08
2023-01-18T21:43:38.690Z,84.34
2023-01-18T21:47:02.499Z,84.45
2023-01-18T21:50:44.648Z,84.55
2023-01-18T21:54:17.447Z,84.60
2023-01-18T21:57:41.315Z,84.56
2023-01-18T22:01:17.596Z,84.51
2023-01-18T22:05:00.279Z,84.44
2023-01-18T22:08:24.201Z,84.44
2023-01-18T22:11:48.685Z,84.47
2023-01-18T22:15:12.774Z,84.52
2023-01-18T22:18:37.330Z,84.62
2023-01-18T22:22:02.094Z,84.78
2023-01-18T22:25:26.017Z,84.82
2023-01-18T22:28:50.325Z,84.93
2023-01-18T22:32:14.222Z,84.93
2023-01-18T22:35:38.100Z,85.07
2023-01-18T22:39:02.103Z,85.04
2023-01-18T22:42:26.471Z,85.08
2023-01-18T22:45:57.178Z,85.21
2023-01-18T22:49:21.125Z,85.37
2023-01-18T22:52:45.175Z,85.47
2023-01-18T22:56:12.270Z,85.48
2023-01-18T22:59:36.218Z,85.54
2023-01-18T23:03:00.202Z,85.66
2023-01-18T23:06:24.375Z,85.68
2023-01-18T23:09:50.624Z,85.59
2023-01-18T23:13:15.203Z,85.54
2023-01-18T23:16:57.012Z,85.49
2023-01-18T23:20:24.332Z,85.46
2023-01-18T23:23:49.083Z,85.50
2023-01-18T23:27:13.305Z,85.48
2023-01-18T23:30:37.179Z,85.51
2023-01-18T23:34:01.153Z,85.55
2023-01-18T23:37:25.936Z,85.58
2023-01-18T23:41:07.746Z,85.59
2023-01-18T23:44:49.040Z,85.56
2023-01-18T23:48:37.197Z,85.56
2023-01-18T23:52:19.009Z,85.57
2023-01-18T23:55:43.167Z,85.58
2023-01-18T23:59:08.872Z,85.62
